Asan, Guam
Current Conditions -  °F | °C
As of 10:16 PM on Thursday 23 Oct 2014 (Local Time) from PGUM Reporting Station
Broken Clouds Broken Clouds  
Wind Chill: 81°   Ceiling: 2800
Heat Index: 88°   Visibility: 10mi
Dew Point: 79°   Wind: 5mph
Humidity: 94%   Direction: 60°ENE
Pressure: 29.88"   Gusts: NA
Location:  13.47°N, 144.71°E
Report Text: PGUM 231216Z 06004KT 10SM FEW011 SCT016 BKN028 27/26 A2988 RMK AO2 RAE14 P0001
Loading
Personal Weather Stations






























Interactive Weather Map
Tropical Storm Tracking
New forecast layout! Learn more

10-Day Weather Forecast

Advertisements
Track Severe Weather on mobile